WEATHER DATA

YESTERDAY
Time Temp. Dewp. Hum. Wind dir Wind speed Wind gust Bar. 1h Prec. 24h Prec.
00:10 1.6 -3.6 66 245 1.7 3.1 1008.9 0.0000 0.0000
00:20 1.5 -3.7 66 248 1.4 3.1 1008.8 0.0000 0.0000
00:29 1.4 -3.9 65 244 1.4 2.2 1008.8 0.0000 0.0000
00:40 1.3 -3.8 66 250 1.1 2.2 1008.7 0.0000 0.0000
00:50 1.2 -3.9 66 252 1.1 1.9 1008.9 0.0000 0.0000
01:00 1 -4.1 66 247 1.1 2.2 1008.9 0.0000 0.0000
01:10 1 -4.1 66 246 1.1 2.2 1008.9 0.0000 0.0000
01:20 0.9 -4.4 65 250 0.8 1.7 1008.9 0.0000 0.0000
01:30 0.9 -4.4 65 245 1.1 1.7 1008.8 0.0000 0.0000
01:40 0.8 -4.5 65 251 1.1 3.6 1008.5 0.0000 0.0000
01:50 0.8 -4.6 64 243 1.4 3.6 1008.7 0.0000 0.0000
02:00 0.9 -4.7 63 247 1.1 3.3 1008.7 0.0000 0.0000
02:10 0.8 -4.8 63 253 0.8 1.9 1008.4 0.0000 0.0000
02:20 0.8 -4.8 63 245 1.1 2.5 1008.3 0.0000 0.0000
02:30 0.8 -4.8 63 245 1.4 2.2 1008.1 0.0000 0.0000
02:40 0.8 -4.8 63 244 1.4 2.5 1008.2 0.0000 0.0000
02:50 0.9 -4.7 63 244 1.4 3.6 1008.1 0.0000 0.0000
03:01 0.9 -4.7 63 236 1.7 3.3 1008 0.0000 0.0000
03:11 0.9 -4.7 63 238 1.4 3.1 1007.8 0.0000 0.0000
03:20 0.8 -4.8 63 244 1.4 2.2 1007.8 0.0000 0.0000
03:31 0.8 -4.8 63 256 0.8 1.9 1007.7 0.0000 0.0000
03:41 0.7 -4.9 63 246 1.4 3.1 1007.5 0.0000 0.0000
03:51 0.7 -4.9 63 245 1.7 2.8 1007.6 0.0000 0.0000
04:01 0.7 -5.1 62 247 1.4 2.5 1007.6 0.0000 0.0000
04:12 0.6 -5.2 62 255 1.1 1.9 1007.6 0.0000 0.0000
04:21 0.5 -5.3 62 256 0.8 1.7 1007.5 0.0000 0.0000
04:31 0.4 -5.3 62 254 1.1 1.9 1007.8 0.0000 0.0000
04:41 0.4 -5.5 61 250 1.4 3.1 1007.4 0.0000 0.0000
04:52 0.4 -5.7 60 245 1.1 2.2 1007.8 0.0000 0.0000
05:02 0.4 -5.7 60 251 0.8 2.2 1007.3 0.0000 0.0000
05:11 0.3 -5.8 60 247 0.8 1.9 1007.4 0.0000 0.0000
05:22 0.3 -6 59 227 0.8 1.7 1007.5 0.0000 0.0000
05:32 0.2 -6.1 59 219 0.6 1.4 1007.5 0.0000 0.0000
05:42 0.2 -6.3 58 240 0.6 1.4 1007.6 0.0000 0.0000
05:52 0.2 -6.3 58 257 0.8 1.7 1007.6 0.0000 0.0000
06:02 0.2 -6.5 57 242 0.6 1.1 1007.7 0.0000 0.0000
06:12 0.1 -6.6 57 270 0.6 1.4 1007.7 0.0000 0.0000
06:22 0.1 -6.4 58 245 0.6 1.4 1007.5 0.0000 0.0000
06:32 0 -6.5 58 254 0.8 1.4 1007.6 0.0000 0.0000
06:42 0 -6.5 58 244 0.6 1.1 1007.6 0.0000 0.0000
06:52 0 -6.5 58 242 0.6 1.1 1007.6 0.0000 0.0000
07:02 0 -6.5 58 239 0.8 1.9 1007.6 0.0000 0.0000
07:13 0 -6.3 59 243 1.1 3.1 1007.6 0.0000 0.0000
07:22 0.1 -6 60 245 1.1 2.5 1007.7 0.0000 0.0000
07:32 0.2 -5.9 60 251 1.1 1.9 1007.7 0.0000 0.0000
07:43 0.4 -5.5 61 248 1.1 2.8 1007.7 0.0000 0.0000
07:52 0.7 -5.3 61 248 1.1 2.2 1008 0.0000 0.0000
08:02 1.3 -5 60 244 1.1 2.5 1007.8 0.0000 0.0000
08:12 1.9 -4.7 59 247 1.4 2.8 1008.1 0.0000 0.0000
08:23 2.3 -4.3 59 239 1.7 3.1 1008.2 0.0000 0.0000
08:32 2.5 -4.4 58 241 1.7 3.3 1008.3 0.0000 0.0000
08:42 2.9 -4 58 243 1.9 3.6 1008.2 0.0000 0.0000
08:53 3.3 -3.9 57 241 1.7 3.3 1008.5 0.0000 0.0000
09:03 3.5 -3.7 57 234 1.9 4.2 1008.7 0.0000 0.0000
09:12 4 -2.9 59 234 1.9 3.6 1008.5 0.0000 0.0000
09:23 4.1 -2 63 244 1.7 3.6 1008.4 0.0000 0.0000
09:33 4.5 -2.1 61 241 1.9 3.3 1008.7 0.0000 0.0000
09:43 4.8 -1.8 61 245 1.7 3.1 1008.7 0.0000 0.0000
09:52 6 -0.6 62 251 2.5 4.4 1008.5 0.0000 0.0000
10:03 7.6 -0.1 58 245 2.8 5.3 1008.5 0.0000 0.0000
10:13 7.1 -0.7 57 250 3.1 6.4 1008.9 0.0000 0.0000
10:22 6.5 -0.6 60 243 2.2 4.7 1008.8 0.0000 0.0000
10:33 6.4 -0.7 60 235 2.2 4.4 1008.5 0.0000 0.0000
10:43 7.4 0.2 60 237 2.2 4.7 1008.5 0.0000 0.0000
10:53 7.8 -0.2 57 239 2.5 5.3 1008.5 0.0000 0.0000
11:02 8.2 -0.3 55 235 2.2 5 1008.5 0.0000 0.0000
11:13 8.4 0.1 56 241 1.9 4.2 1008.7 0.0000 0.0000
11:23 8.2 -0.5 54 244 2.2 4.7 1008.7 0.0000 0.0000
11:33 8.7 0.2 55 245 2.2 5 1008.5 0.0000 0.0000
11:43 9.8 0.4 52 248 2.8 5.6 1008.5 0.0000 0.0000
11:53 10 0.1 50 244 2.5 4.7 1008.3 0.0000 0.0000
12:03 9.8 0.2 51 250 2.5 5 1008.4 0.0000 0.0000
12:13 9 0.5 55 247 2.5 5 1008.5 0.0000 0.0000
12:23 8.4 -0.1 55 244 2.5 4.7 1008.4 0.0000 0.0000
12:33 7.9 0.6 60 252 2.2 5.3 1008.4 0.0000 0.0000
12:43 7.7 0.7 61 259 1.9 3.6 1008.4 0.0000 0.0000
12:54 6.9 0.6 64 289 1.1 3.1 1008.3 0.0000 0.0000
13:03 6.4 0.7 67 282 1.4 3.1 1008.2 0.0000 0.0000
13:13 6.1 0.6 68 293 1.1 2.8 1008.2 0.1185 0.1000
13:23 5.6 0.6 70 279 1.4 3.3 1008.1 0.1185 0.1000
13:33 5.1 0.3 71 316 1.1 2.8 1008 0.1185 0.1000
13:43 4.5 -0.1 72 301 1.1 3.1 1007.6 0.1185 0.1000
13:53 4.3 -0.1 73 270 1.1 3.3 1007.5 0.1185 0.1000
14:04 4.1 -0.3 73 334 1.4 3.1 1007.3 0.1185 0.2000
14:13 3.8 -0.4 74 308 0.8 2.2 1007.3 0.2371 0.4000
14:23 3.7 -0.3 75 286 0.8 1.7 1007.3 0.2371 0.4000
14:33 3.7 -0.1 76 270 1.4 2.8 1007.3 0.2371 0.4000
14:44 3.6 -0.2 76 270 1.1 2.8 1007.1 0.2371 0.4000
14:53 3.5 -0.4 75 259 1.4 2.8 1007 0.2371 0.4000
15:03 3.3 -0.6 75 243 1.4 2.5 1007.1 0.0000 0.4000
15:17 2.9 -0.8 76 253 1.9 3.1 1006.9 0.0000 0.4000
15:26 2.8 -1 75 248 1.4 3.1 1007 0.0000 0.4000
15:34 2.7 -1 76 238 1.1 1.9 1006.8 0.0000 0.4000
15:44 2.8 -0.9 76 230 1.1 1.9 1006.7 0.0000 0.4000
15:54 2.9 -0.8 76 234 0.8 1.9 1006.4 0.0000 0.4000
16:04 2.8 -1 75 231 1.1 2.2 1006.8 0.0000 0.4000
16:16 2.6 -1.2 75 213 1.1 1.9 1006.8 0.0000 0.4000
16:26 2.5 -1.1 76 242 0.8 1.9 1006.3 0.0000 0.4000
16:37 2.4 -1.1 77 236 0.8 2.2 1006.5 0.0000 0.4000
16:46 2.4 -1.1 77 218 0.8 1.9 1006.3 0.0000 0.4000
16:56 2.3 -1 78 240 0.8 1.9 1006.1 0.2371 0.6000
17:04 2.3 -1 78 240 1.1 2.2 1006.1 0.3557 0.7000
17:14 2.4 -0.8 79 250 0.8 1.9 1005.8 0.4743 0.8000
17:24 2.4 -0.8 79 244 1.1 2.2 1006 0.5928 0.9000
17:34 2.5 -0.7 79 241 1.1 1.9 1006.1 0.7114 1.1000
17:44 2.5 -0.7 79 226 0.8 1.7 1006 0.7114 1.2000
17:54 2.4 -0.8 79 238 0.8 1.9 1005.8 0.5928 1.2000
18:04 2.4 -0.8 79 211 0.8 1.7 1005.7 0.5928 1.3000
18:14 2.3 -0.8 79 222 0.6 1.9 1006 0.4743 1.3000
18:24 2.1 -1 79 193 0.6 1.7 1006 0.3557 1.4000
18:34 2 -1.1 79 204 0.6 1.1 1006.1 0.2371 1.4000
18:44 1.9 -1.2 79 280 1.1 2.5 1006.3 0.2371 1.4000
18:54 1.7 -1.4 79 270 0.8 1.9 1006.5 0.1185 1.4000
19:04 1.4 -1.6 79 238 0.8 1.9 1006.4 0.1185 1.4000
19:15 1.3 -1.6 80 258 0.8 1.9 1006.8 0.0000 1.4000
19:24 1.2 -1.6 80 250 0.8 1.7 1006.9 0.0000 1.4000
19:34 1.1 -1.6 81 243 0.8 1.7 1006.9 0.0000 1.4000
19:44 1 -1.7 81 270 0.8 1.7 1006.7 0.0000 1.4000
19:55 1 -1.7 81 259 0.8 1.7 1006.8 0.0000 1.4000
20:04 0.9 -1.8 81 259 1.1 1.9 1006.7 0.0000 1.4000
20:14 0.9 -1.6 82 270 1.1 1.9 1006.7 0.0000 1.4000
20:25 0.8 -1.7 82 236 0.8 1.9 1006.8 0.0000 1.4000
20:34 0.8 -1.7 82 239 0.6 1.4 1006.9 0.0000 1.4000
20:44 0.8 -1.7 82 239 0.6 1.4 1006.9 0.0000 1.4000
20:55 0.8 -1.7 82 254 0.6 1.4 1006.9 0.0000 1.4000
21:05 0.8 -1.7 82 270 0.3 0.8 1006.9 0.0000 1.4000
21:14 0.7 -1.8 82 270 0.3 1.1 1007 0.0000 1.4000
21:24 0.6 -1.9 82 233 0.3 1.1 1007 0.0000 1.4000
21:35 0.6 -1.9 82 228 0.6 1.1 1006.9 0.0000 1.4000
21:45 0.5 -2 82 237 0.3 0.8 1006.9 0.0000 1.4000
21:54 0.4 -2 82 270 0.3 1.1 1007 0.0000 1.4000
22:05 0.3 -2.1 82 270 0.3 1.1 1006.7 0.0000 1.4000
22:15 0.2 -2.2 82 270 0.3 1.1 1006.7 0.0000 1.4000
22:24 0 -2.4 82 270 0.6 1.4 1006.7 0.0000 1.4000
22:35 0 -2.4 82 270 0.3 1.1 1006.4 0.0000 1.4000
22:45 -0.2 -2.6 82 232 0.3 0.8 1006.5 0.0000 1.4000
22:55 -0.4 -2.8 82 239 0.6 1.1 1006.5 0.0000 1.4000
23:04 -0.5 -2.9 82 228 0.6 1.1 1006.5 0.0000 1.4000
23:15 -0.6 -3 82 207 0.6 1.1 1006.5 0.0000 1.4000
23:25 -0.6 -3 82 187 0.6 1.7 1006.7 0.0000 1.4000
23:35 -0.6 -3.1 81 221 0.6 1.1 1006.5 0.0000 1.4000
23:45 -0.7 -3.2 81 221 0.6 1.1 1006.4 0.0000 1.4000
23:55 -0.6 -3.1 81 228 0.6 1.1 1006.3 0.0000 1.4000

DAY STATISTIC

2019-02-18
TEMPERATURE
AVERAGE
2.4
HIGH
10.0
11:53
LOW
-0.7
23:45
PRESSURE
AVERAGE
1007.5
HIGH
1008.9
00:10
LOW
1005.7
18:04
DEWPOINT
AVERAGE
-2.6
HIGH
0.7
12:43
LOW
-6.6
06:12
HUMIDITY
AVERAGE
69
HIGH
82
20:14
LOW
50
11:53
WIND SPEED
AVERAGE
1.2
HIGH
3.1
10:13
WIND GUST
AVERAGE
2.5
HIGH
6.4
10:13
WIND DIRECTION
PREVAILING
SW
58.7%
N
0.0
NE
0.0
E
0.0
SE
0.0
S
2.1
SW
58.7
W
35.7
NW
3.5
PRECIPITATION
RAIN HOUR
0.7
RAIN DAY
1.4
TEMPERATURE (°C)
LOW
-0.7
HIGH
10.0
AVERAGE
2.4
PRESSURE (hpa)
LOW
1005.7
HIGH
1008.9
AVERAGE
1007.5
DEVICE